Overview Statistics Trail Chart Weather Telemetry Raw packets
 

This is the latest recevied weather packets stored in our database for station/object IW2LSY-11. If no packets are shown the sender has not sent any weather packets the latest 10 day(s).

<< 1 2 3 4 5 6 7 >>
Time Temp. Humidity Pressure Rain* Wind** Luminosity Snow
1788519015 30° C 33% 1019.3 hPa - - 557 W/m² -
1788517834 30° C 36% 1019.6 hPa - - 550 W/m² -
1788517216 29.44° C 36% 1019.8 hPa - - 546 W/m² -
1788516615 28.89° C 37% 1019.9 hPa - - 541 W/m² -
1788516014 27.78° C 41% 1020.1 hPa - - 538 W/m² -
1788515414 28.33° C 39% 1020.3 hPa - - 535 W/m² -
1788514839 27.78° C 38% 1020.5 hPa - - 531 W/m² -
1788514214 26.67° C 40% 1020.6 hPa - - 528 W/m² -
1788513614 26.67° C 44% 1020.8 hPa - - 531 W/m² -
1788513013 26.67° C 44% 1020.8 hPa - - 530 W/m² -
1788512413 26.11° C 42% 1020.9 hPa - - 531 W/m² -
1788511813 26.11° C 43% 1021 hPa - - 532 W/m² -
1788511212 25.56° C 43% 1021.2 hPa - - 532 W/m² -
1788510613 24.44° C 47% 1021.3 hPa - - 533 W/m² -
1788510012 23.89° C 46% 1021.3 hPa - - 533 W/m² -
1788508812 22.78° C 49% 1021.5 hPa - - 533 W/m² -
1788508212 22.78° C 50% 1021.5 hPa - - 534 W/m² -
1788507612 22.78° C 48% 1021.6 hPa - - 534 W/m² -
1788507011 21.67° C 51% 1021.8 hPa - - 534 W/m² -
1788506412 22.78° C 49% 1021.8 hPa - - 534 W/m² -
1788505811 22.78° C 48% 1021.9 hPa - - 535 W/m² -
1788505211 21.67° C 52% 1022 hPa - - 535 W/m² -
1788504010 21.67° C 52% 1022.2 hPa - - 536 W/m² -
1788503437 21.11° C 53% 1022.2 hPa - - 536 W/m² -
1788502821 20° C 58% 1022.1 hPa - - 536 W/m² -

* Rain since midnight (hover to see other rain measurements)
** Current wind speed in m/s (hover to see current wind gust speed)